Time;durP1;ratioP1;P1;durP2;ratioP2;P2;SDS_P1;SDS_P2;PMS_P1;PMS_P2;Temp;Humidity;BMP_temperature;BMP_pressure;BME280_temperature;BME280_humidity;BME280_pressure;Samples;Min_cycle;Max_cycle;Signal;HPM_P1;HPM_P2
2024/03/07 08:32:28;;;;;;;18.23;11.63;;;;;;;5.05;84.81;99502.69;5108532;28;20623;-76
2024/03/07 08:34:56;;;;;;;18.53;11.40;;;;;;;5.65;81.74;99509.56;5090571;28;39774;-80
2024/03/07 08:37:24;;;;;;;15.73;10.70;;;;;;;6.30;79.34;99517.06;5091214;28;41958;-80
2024/03/07 08:39:52;;;;;;;17.57;11.37;;;;;;;6.76;75.56;99527.69;5087059;28;44872;-82
2024/03/07 08:42:19;;;;;;;14.53;10.43;;;;;;;7.16;74.00;99528.84;5070281;28;41417;-80
2024/03/07 08:44:46;;;;;;;16.27;11.77;;;;;;;7.48;70.17;99540.75;5106943;28;40091;-83
2024/03/07 08:47:14;;;;;;;15.63;10.43;;;;;;;7.69;68.97;99539.03;5107522;28;42988;-79
2024/03/07 08:49:43;;;;;;;17.10;11.03;;;;;;;8.02;67.57;99540.34;5090170;28;41566;-79
2024/03/07 08:52:12;;;;;;;15.53;11.73;;;;;;;8.22;65.89;99544.78;5090422;28;41075;-80
2024/03/07 08:54:39;;;;;;;16.57;11.93;;;;;;;8.34;64.87;99539.00;5107219;28;41415;-83
2024/03/07 08:57:07;;;;;;;15.73;11.37;;;;;;;8.50;64.40;99528.66;5108536;28;41813;-86
2024/03/07 08:59:34;;;;;;;16.27;10.93;;;;;;;8.94;63.74;99548.69;5106938;28;42727;-80
2024/03/07 09:02:02;;;;;;;17.27;11.60;;;;;;;9.17;62.37;99547.63;5107240;28;43054;-81
2024/03/07 09:04:30;;;;;;;15.97;11.00;;;;;;;9.42;60.91;99552.66;5107184;28;40182;-83
2024/03/07 09:06:59;;;;;;;19.57;12.23;;;;;;;10.10;60.92;99540.56;5107247;28;41780;-84
2024/03/07 09:09:27;;;;;;;16.27;11.60;;;;;;;10.54;59.03;99556.88;5107856;28;42874;-82
2024/03/07 09:11:54;;;;;;;17.57;11.37;;;;;;;10.35;58.33;99529.63;5106701;28;42157;-85
2024/03/07 09:14:22;;;;;;;14.63;10.20;;;;;;;10.50;58.10;99555.31;5089854;28;40122;-80
2024/03/07 09:16:51;;;;;;;15.33;11.07;;;;;;;10.46;56.40;99558.19;5107179;28;42859;-81
2024/03/07 09:19:20;;;;;;;15.27;11.70;;;;;;;10.52;56.69;99541.97;5106366;28;43693;-82
2024/03/07 09:21:49;;;;;;;16.77;12.17;;;;;;;10.80;56.02;99558.16;5107870;28;41904;-82
2024/03/07 09:24:21;;;;;;;13.93;10.87;;;;;;;10.97;55.83;99555.50;5107564;28;40124;-82
2024/03/07 09:26:49;;;;;;;16.30;11.93;;;;;;;11.06;54.88;99560.31;5089427;28;40942;-79
2024/03/07 09:29:18;;;;;;;15.60;11.47;;;;;;;11.12;54.45;99565.28;5089467;28;43098;-82
2024/03/07 09:31:46;;;;;;;16.60;12.17;;;;;;;11.06;54.46;99565.59;5106293;28;42138;-81
2024/03/07 09:34:14;;;;;;;15.77;10.77;;;;;;;11.14;54.42;99558.09;5107930;28;40889;-81
2024/03/07 09:36:42;;;;;;;15.70;11.47;;;;;;;11.14;54.05;99555.44;5087239;28;41774;-79
2024/03/07 09:39:09;;;;;;;17.47;12.03;;;;;;;11.20;54.24;99545.47;5069252;28;41692;-79
2024/03/07 09:41:39;;;;;;;16.60;12.33;;;;;;;11.33;53.88;99552.66;5082110;28;42348;-79
2024/03/07 09:44:09;;;;;;;17.70;11.73;;;;;;;11.55;54.01;99548.81;5072829;28;40422;-80
2024/03/07 09:46:38;;;;;;;17.80;12.33;;;;;;;11.96;53.81;99546.53;5088827;28;41996;-79
2024/03/07 09:49:08;;;;;;;15.63;11.70;;;;;;;12.62;53.14;99546.19;5075926;28;42461;-79
2024/03/07 09:51:37;;;;;;;17.17;11.97;;;;;;;13.20;51.08;99533.75;5075351;28;44047;-80
2024/03/07 09:54:04;;;;;;;16.40;12.20;;;;;;;14.49;48.57;99575.06;5092931;28;39051;-84
2024/03/07 09:56:35;;;;;;;15.10;11.67;;;;;;;15.97;45.36;99592.22;5092373;28;41563;-79
2024/03/07 09:59:06;;;;;;;13.67;11.13;;;;;;;16.47;44.74;99582.28;5091101;28;43078;-79
2024/03/07 10:01:35;;;;;;;11.63;9.83;;;;;;;16.75;44.88;99560.53;5091276;28;42094;-79
2024/03/07 10:04:11;;;;;;;13.57;10.83;;;;;;;17.06;42.75;99579.59;5075835;28;40203;-79
2024/03/07 10:06:39;;;;;;;13.40;10.47;;;;;;;17.14;42.17;99582.53;5091895;28;42671;-79
2024/03/07 10:09:08;;;;;;;13.27;10.33;;;;;;;16.97;42.50;99593.66;5092703;28;43493;-78
2024/03/07 10:11:35;;;;;;;20.53;16.03;;;;;;;16.49;42.26;99588.38;5092872;28;42174;-78
2024/03/07 10:14:04;;;;;;;19.03;12.27;;;;;;;16.32;43.07;99578.09;5092188;28;40931;-80
2024/03/07 10:16:32;;;;;;;15.43;11.10;;;;;;;16.48;43.22;99575.97;5092083;28;43916;-79
2024/03/07 10:19:00;;;;;;;13.40;10.43;;;;;;;16.57;42.99;99577.94;5092931;28;43155;-82
2024/03/07 10:21:29;;;;;;;14.47;10.53;;;;;;;16.91;44.12;99557.56;5093039;28;43421;-79
2024/03/07 10:24:07;;;;;;;14.47;10.83;;;;;;;17.06;42.22;99563.53;5093874;28;40222;-80
2024/03/07 10:26:37;;;;;;;14.27;10.77;;;;;;;16.94;43.51;99556.47;5092216;28;42706;-81
2024/03/07 10:29:07;;;;;;;13.03;10.37;;;;;;;17.27;43.49;99550.28;5075093;28;41901;-79
2024/03/07 10:31:36;;;;;;;12.77;9.40;;;;;;;17.27;41.46;99572.56;5070841;28;43926;-82
2024/03/07 10:34:04;;;;;;;13.50;10.03;;;;;;;17.23;40.58;99576.44;5072388;28;40226;-82
2024/03/07 10:36:33;;;;;;;15.13;10.50;;;;;;;17.16;40.46;99570.72;5073785;28;41075;-78
2024/03/07 10:39:13;;;;;;;12.20;9.73;;;;;;;18.38;40.88;99550.13;5091880;28;43541;-80
2024/03/07 10:41:46;;;;;;;14.07;9.70;;;;;;;21.72;37.10;99552.94;5074648;28;41339;-81
2024/03/07 10:44:22;;;;;;;10.27;9.17;;;;;;;24.07;33.52;99586.47;5091942;28;41571;-79
2024/03/07 10:46:53;;;;;;;11.10;9.70;;;;;;;25.05;29.54;99610.03;5074995;28;43143;-82
2024/03/07 10:49:24;;;;;;;12.23;10.20;;;;;;;24.49;30.53;99592.69;5091615;28;42133;-81
2024/03/07 10:52:02;;;;;;;11.97;10.17;;;;;;;25.00;30.73;99580.72;5092926;28;43073;-82
2024/03/07 10:54:40;;;;;;;10.60;9.50;;;;;;;25.35;29.94;99563.22;5094386;28;40060;-82
2024/03/07 10:57:22;;;;;;;10.77;9.67;;;;;;;25.34;29.25;99576.97;5077117;28;41258;-81
2024/03/07 10:59:57;;;;;;;10.38;9.27;;;;;;;27.25;28.63;99563.66;5090029;28;43559;-83
2024/03/07 11:02:34;;;;;;;9.70;8.70;;;;;;;27.41;27.41;99568.94;5091728;28;42634;-79
2024/03/07 11:05:07;;;;;;;14.40;9.73;;;;;;;26.06;28.36;99556.91;5089578;28;40169;-78
2024/03/07 11:07:36;;;;;;;9.83;8.83;;;;;;;25.19;28.60;99565.97;5074478;28;43836;-79
2024/03/07 11:10:11;;;;;;;11.10;10.00;;;;;;;26.02;29.05;99555.56;5091458;28;41966;-81
2024/03/07 11:12:41;;;;;;;10.07;8.77;;;;;;;25.92;28.01;99554.94;5072923;28;42170;-81
2024/03/07 11:15:14;;;;;;;9.37;8.37;;;;;;;25.57;28.67;99555.38;5090607;28;39445;-79
2024/03/07 11:17:43;;;;;;;10.47;8.67;;;;;;;26.28;26.92;99559.84;5087645;28;43094;-79
2024/03/07 11:20:20;;;;;;;8.73;7.83;;;;;;;25.85;26.53;99553.94;5092617;28;43496;-79
2024/03/07 11:22:49;;;;;;;8.60;7.70;;;;;;;26.53;25.37;99572.25;5074722;28;42673;-80
2024/03/07 11:25:19;;;;;;;8.63;7.70;;;;;;;25.31;27.04;99551.03;5091961;28;40701;-82
2024/03/07 11:27:55;;;;;;;8.37;7.50;;;;;;;24.79;27.48;99550.56;5073438;28;42654;-79
2024/03/07 11:30:25;;;;;;;8.40;7.53;;;;;;;25.85;26.76;99543.06;5067331;28;44450;-78
2024/03/07 11:32:54;;;;;;;8.88;7.78;;;;;;;27.66;24.95;99547.78;5101245;28;42338;-78
2024/03/07 11:35:25;;;;;;;8.65;7.70;;;;;;;29.92;22.63;99550.56;5069061;28;39713;-80
2024/03/07 11:37:58;;;;;;;7.40;6.60;;;;;;;31.91;21.76;99546.94;5084427;28;42706;-80
2024/03/07 11:40:44;;;;;;;7.90;7.10;;;;;;;33.55;20.24;99539.47;5073754;28;41620;-79
2024/03/07 11:43:13;;;;;;;7.97;7.18;;;;;;;34.20;20.37;99517.78;5089110;28;42065;-81
2024/03/07 11:45:46;;;;;;;7.85;7.05;;;;;;;34.13;20.17;99525.25;5073460;28;40104;-82
2024/03/07 11:48:14;;;;;;;8.70;7.88;;;;;;;32.81;19.51;99526.63;5089284;28;42014;-84
2024/03/07 11:50:42;;;;;;;8.45;7.55;;;;;;;30.67;21.18;99517.59;5091765;28;44255;-80
2024/03/07 11:53:10;;;;;;;9.32;8.15;;;;;;;29.21;21.73;99495.31;5090821;28;42235;-83
2024/03/07 11:55:44;;;;;;;8.60;7.77;;;;;;;27.56;24.11;99477.31;5072833;28;38802;-79
2024/03/07 11:58:13;;;;;;;8.63;7.73;;;;;;;26.15;24.75;99465.38;5086796;28;42415;-82
2024/03/07 12:00:44;;;;;;;10.70;8.80;;;;;;;25.10;25.50;99472.13;5089963;28;42963;-79
2024/03/07 12:03:14;;;;;;;9.57;7.57;;;;;;;23.94;26.93;99457.91;5073407;28;42199;-81
2024/03/07 12:05:43;;;;;;;11.30;8.47;;;;;;;22.76;27.97;99433.56;5089511;28;40615;-78
2024/03/07 12:08:12;;;;;;;10.23;8.10;;;;;;;21.53;28.91;99429.88;5091973;28;41899;-79
2024/03/07 12:10:43;;;;;;;9.67;8.07;;;;;;;20.34;30.50;99368.69;5090546;28;41929;-79
2024/03/07 12:13:12;;;;;;;10.67;8.73;;;;;;;19.84;31.00;99418.28;5087707;28;41996;-82
2024/03/07 12:15:40;;;;;;;9.40;7.57;;;;;;;19.25;31.81;99416.47;5124234;27;40511;-79
2024/03/07 12:18:10;;;;;;;10.47;8.10;;;;;;;18.98;33.15;99401.81;5104884;28;41016;-79
2024/03/07 12:20:38;;;;;;;11.37;8.17;;;;;;;18.94;32.97;99395.00;5089223;28;43343;-80
2024/03/07 12:23:08;;;;;;;8.83;6.97;;;;;;;18.91;33.22;99387.25;5090688;28;42310;-81
2024/03/07 12:25:36;;;;;;;8.63;7.10;;;;;;;19.17;33.01;99395.63;5091845;28;40383;-80
2024/03/07 12:28:06;;;;;;;9.43;7.60;;;;;;;19.30;33.22;99384.66;5090428;28;41766;-78
2024/03/07 12:30:35;;;;;;;9.60;7.53;;;;;;;19.26;32.71;99394.84;5088832;28;42796;-78
2024/03/07 12:33:07;;;;;;;9.67;6.97;;;;;;;19.07;33.17;99392.09;5089458;28;40723;-79
2024/03/07 12:35:36;;;;;;;11.33;7.77;;;;;;;18.76;33.55;99377.84;5086310;28;41593;-84
2024/03/07 12:38:04;;;;;;;10.03;7.40;;;;;;;18.61;34.10;99368.47;5069674;28;42000;-77
2024/03/07 12:40:33;;;;;;;8.83;7.57;;;;;;;18.44;34.08;99375.25;5070447;28;43107;-81
2024/03/07 12:43:02;;;;;;;9.93;7.43;;;;;;;18.30;34.57;99365.72;5090316;28;41268;-79
2024/03/07 12:45:33;;;;;;;11.03;7.97;;;;;;;18.25;33.99;99356.38;5073292;28;41314;-82
2024/03/07 12:48:04;;;;;;;9.23;7.03;;;;;;;18.09;34.82;99362.19;5090777;28;41119;-80
2024/03/07 12:50:34;;;;;;;10.47;7.20;;;;;;;17.83;35.02;99342.97;5071322;28;43551;-81
2024/03/07 12:53:05;;;;;;;10.60;7.33;;;;;;;17.66;35.79;99343.56;5090734;28;43958;-79
2024/03/07 12:55:33;;;;;;;8.93;7.33;;;;;;;17.33;35.75;99347.16;5073312;28;38887;-78
2024/03/07 12:58:00;;;;;;;9.87;7.50;;;;;;;17.01;36.28;99348.97;5089926;28;41871;-77
2024/03/07 13:00:29;;;;;;;10.50;7.67;;;;;;;16.57;36.39;99353.31;5091342;28;43221;-79
2024/03/07 13:02:57;;;;;;;8.60;7.60;;;;;;;16.33;37.38;99344.56;5073614;28;42372;-83
2024/03/07 13:05:26;;;;;;;9.47;7.20;;;;;;;16.08;37.15;99340.28;5068278;28;39934;-82
2024/03/07 13:07:55;;;;;;;9.03;7.23;;;;;;;15.78;37.05;99343.50;5064729;28;41967;-80
2024/03/07 13:10:23;;;;;;;8.60;6.97;;;;;;;15.44;37.65;99350.50;5069151;28;43808;-82
2024/03/07 13:12:51;;;;;;;10.07;7.43;;;;;;;15.25;37.67;99337.66;5071345;28;43336;-79
2024/03/07 13:15:22;;;;;;;9.20;7.37;;;;;;;15.19;38.45;99324.78;5072444;28;39641;-79
2024/03/07 13:17:53;;;;;;;11.63;7.33;;;;;;;15.07;38.82;99325.69;5090144;28;41451;-81
2024/03/07 13:20:22;;;;;;;9.27;7.43;;;;;;;14.91;38.76;99327.75;5093053;28;41710;-80
2024/03/07 13:22:49;;;;;;;9.97;6.97;;;;;;;14.65;38.65;99313.63;5094889;28;42266;-79
2024/03/07 13:25:20;;;;;;;9.47;6.73;;;;;;;14.48;38.92;99325.50;5093560;28;39949;-79
2024/03/07 13:27:57;;;;;;;12.47;8.33;;;;;;;14.39;39.37;99328.78;5076872;28;40948;-77
2024/03/07 13:30:27;;;;;;;9.77;6.90;;;;;;;14.26;40.04;99315.47;5079262;28;42641;-82
2024/03/07 13:32:55;;;;;;;8.80;6.53;;;;;;;14.14;39.63;99320.81;5093718;28;42796;-80
2024/03/07 13:35:24;;;;;;;10.00;7.37;;;;;;;14.11;40.15;99318.34;5075292;28;38844;-77
2024/03/07 13:37:54;;;;;;;9.87;7.13;;;;;;;14.01;40.32;99311.00;5074945;28;42586;-77
2024/03/07 13:40:23;;;;;;;10.10;7.23;;;;;;;13.98;40.56;99311.22;5093019;28;44047;-77
2024/03/07 13:42:57;;;;;;;9.20;7.10;;;;;;;13.93;40.51;99310.69;5092074;28;42781;-79
2024/03/07 13:45:26;;;;;;;10.13;7.57;;;;;;;13.91;40.68;99304.63;5075245;28;39327;-78
2024/03/07 13:47:56;;;;;;;9.07;6.53;;;;;;;13.76;40.39;99281.69;5091577;28;42065;-79
2024/03/07 13:50:25;;;;;;;9.00;6.50;;;;;;;13.77;40.66;99303.84;5091525;28;42689;-78
2024/03/07 13:53:10;;;;;;;8.93;6.60;;;;;;;13.69;40.82;99295.53;5091162;28;43443;-79
2024/03/07 13:55:50;;;;;;;11.07;7.20;;;;;;;13.70;41.09;99289.28;5091384;28;39746;-79
2024/03/07 13:58:35;;;;;;;10.27;7.23;;;;;;;13.46;40.53;99284.66;5091215;28;41813;-80
2024/03/07 14:01:24;;;;;;;7.27;5.97;;;;;;;13.40;41.63;99276.22;5090207;28;43739;-79
2024/03/07 14:04:27;;;;;;;10.33;6.40;;;;;;;13.47;41.46;99285.50;5082294;28;42207;-82
2024/03/07 14:07:15;;;;;;;10.77;7.20;;;;;;;13.32;41.30;99266.09;5075260;28;39699;-79
2024/03/07 14:10:06;;;;;;;9.53;7.23;;;;;;;13.38;41.66;99283.44;5074617;28;40918;-78
2024/03/07 14:12:49;;;;;;;9.13;6.93;;;;;;;13.29;41.58;99272.47;5113249;27;42742;-80
2024/03/07 14:15:56;;;;;;;9.23;7.10;;;;;;;13.10;41.45;99263.16;5091095;28;41367;-81
2024/03/07 14:19:16;;;;;;;11.47;6.57;;;;;;;12.98;41.71;99270.13;5091469;28;40531;-78
2024/03/07 14:22:04;;;;;;;11.83;7.57;;;;;;;12.94;41.56;99290.75;5052685;28;42725;-78
2024/03/07 14:24:56;;;;;;;9.30;7.13;;;;;;;12.87;42.06;99288.56;5074488;28;43061;-78
2024/03/07 14:27:28;;;;;;;11.87;6.73;;;;;;;12.87;42.38;99285.91;5111727;27;43337;-77
2024/03/07 14:30:22;;;;;;;9.93;6.80;;;;;;;12.79;42.50;99277.59;5087601;28;40942;-77
2024/03/07 14:32:54;;;;;;;9.90;6.63;;;;;;;12.79;42.62;99288.22;5087978;28;41921;-77
2024/03/07 14:35:29;;;;;;;10.17;7.30;;;;;;;12.69;42.78;99265.84;5088219;28;43379;-76
2024/03/07 14:38:07;;;;;;;7.93;6.40;;;;;;;12.76;43.11;99269.78;5090795;28;42284;-76
2024/03/07 14:40:34;;;;;;;8.33;6.47;;;;;;;12.76;42.97;99273.31;5090849;28;40442;-76
2024/03/07 14:43:06;;;;;;;13.23;8.03;;;;;;;12.66;42.63;99281.97;5090695;28;41841;-76
2024/03/07 14:45:39;;;;;;;9.77;7.10;;;;;;;12.55;42.15;99286.19;5074419;28;42672;-78
2024/03/07 14:48:09;;;;;;;9.50;7.27;;;;;;;12.44;42.54;99283.34;5073590;28;41375;-77
2024/03/07 14:50:38;;;;;;;8.70;6.73;;;;;;;12.27;42.88;99258.78;5087903;28;40407;-77
2024/03/07 14:53:06;;;;;;;9.23;7.13;;;;;;;12.34;43.45;99276.94;5073431;28;44681;-78
2024/03/07 14:55:36;;;;;;;8.03;6.13;;;;;;;12.34;43.92;99271.63;5090756;28;42642;-78
2024/03/07 14:58:05;;;;;;;9.80;7.27;;;;;;;12.27;43.46;99264.09;5091131;28;42724;-78
2024/03/07 15:00:33;;;;;;;11.03;7.17;;;;;;;12.29;43.69;99273.69;5073313;28;38819;-77
2024/03/07 15:03:02;;;;;;;9.67;6.30;;;;;;;12.29;43.84;99268.38;5073188;28;43198;-76
2024/03/07 15:05:31;;;;;;;10.43;7.23;;;;;;;12.21;43.29;99265.38;5090522;28;44196;-78
2024/03/07 15:07:58;;;;;;;11.03;6.77;;;;;;;12.02;43.66;99238.25;5090283;28;42026;-78
2024/03/07 15:10:28;;;;;;;9.10;6.87;;;;;;;12.09;43.28;99261.69;5073591;28;39234;-76
2024/03/07 15:12:55;;;;;;;8.97;6.73;;;;;;;12.07;43.74;99262.72;5091185;28;41821;-76
2024/03/07 15:15:24;;;;;;;10.03;7.10;;;;;;;12.06;43.89;99258.34;5072541;28;42692;-77
2024/03/07 15:17:52;;;;;;;9.07;6.83;;;;;;;12.00;43.34;99261.38;5090956;28;42500;-77
2024/03/07 15:20:22;;;;;;;9.13;6.90;;;;;;;11.95;43.78;99264.31;5090242;28;40176;-78
2024/03/07 15:22:54;;;;;;;8.77;6.50;;;;;;;11.82;43.50;99255.41;5073603;28;41911;-77
2024/03/07 15:25:22;;;;;;;8.53;6.80;;;;;;;11.71;43.98;99261.34;5090652;28;41748;-79
2024/03/07 15:27:50;;;;;;;10.17;6.57;;;;;;;11.62;43.75;99253.91;5073286;28;41287;-79
2024/03/07 15:30:19;;;;;;;9.23;7.13;;;;;;;11.56;44.35;99251.66;5089606;28;40439;-79
2024/03/07 15:32:47;;;;;;;9.87;6.07;;;;;;;11.47;44.79;99241.59;5072431;28;40926;-77
2024/03/07 15:35:17;;;;;;;9.27;6.80;;;;;;;11.47;45.29;99242.44;5091194;28;42774;-77
2024/03/07 15:37:46;;;;;;;10.00;7.10;;;;;;;11.43;45.62;99240.06;5089627;28;42050;-77
2024/03/07 15:40:16;;;;;;;11.63;7.70;;;;;;;11.39;45.73;99241.19;5089465;28;41033;-77
2024/03/07 15:42:46;;;;;;;10.90;7.83;;;;;;;11.37;46.09;99237.78;5089561;28;41633;-76
2024/03/07 15:45:16;;;;;;;11.20;7.13;;;;;;;11.23;46.10;99219.19;5089882;28;41955;-77
2024/03/07 15:47:44;;;;;;;10.53;7.10;;;;;;;11.19;46.27;99210.56;5089799;28;41484;-78
2024/03/07 15:50:12;;;;;;;9.47;7.07;;;;;;;11.29;46.20;99237.38;5089795;28;40598;-78
2024/03/07 15:52:41;;;;;;;10.83;8.20;;;;;;;11.26;46.42;99237.53;5065034;28;41994;-77
2024/03/07 15:55:13;;;;;;;10.80;7.17;;;;;;;11.23;46.44;99237.75;5060430;28;42668;-78
2024/03/07 15:57:47;;;;;;;12.67;8.60;;;;;;;11.18;46.11;99229.22;5072596;28;42241;-80
2024/03/07 16:00:24;;;;;;;11.60;7.50;;;;;;;11.11;46.30;99229.59;5089794;28;40057;-83
2024/03/07 16:02:54;;;;;;;11.20;7.50;;;;;;;11.06;45.97;99236.94;5087989;28;42496;-77
2024/03/07 16:05:23;;;;;;;11.70;7.63;;;;;;;11.04;46.96;99228.22;5089313;28;43469;-81
2024/03/07 16:07:52;;;;;;;9.00;6.27;;;;;;;10.98;46.23;99228.59;5089968;28;43213;-78
2024/03/07 16:10:20;;;;;;;10.73;7.60;;;;;;;11.01;46.41;99233.69;5090394;28;40155;-80
2024/03/07 16:12:49;;;;;;;10.77;7.40;;;;;;;10.98;46.64;99233.88;5089591;28;42977;-80
2024/03/07 16:15:16;;;;;;;9.77;7.20;;;;;;;10.97;46.40;99229.53;5088724;28;43111;-75
2024/03/07 16:17:45;;;;;;;10.33;7.70;;;;;;;10.91;46.63;99227.22;5089808;28;42071;-79
2024/03/07 16:20:13;;;;;;;11.87;7.43;;;;;;;10.89;46.74;99225.59;5089395;28;40111;-78
2024/03/07 16:22:41;;;;;;;11.07;8.13;;;;;;;10.88;46.83;99227.38;5090151;28;42201;-76
2024/03/07 16:25:10;;;;;;;9.87;7.63;;;;;;;10.82;46.94;99238.34;5071140;28;43074;-77
2024/03/07 16:27:42;;;;;;;8.97;7.30;;;;;;;10.79;47.07;99226.13;5072270;28;43496;-77
2024/03/07 16:30:13;;;;;;;10.40;7.30;;;;;;;10.78;47.28;99229.72;5088801;28;39730;-77
2024/03/07 16:32:41;;;;;;;10.37;7.07;;;;;;;10.70;47.28;99220.50;5064944;28;42157;-76
2024/03/07 16:35:12;;;;;;;9.90;7.00;;;;;;;10.69;46.90;99224.09;5088823;28;42705;-77
2024/03/07 16:37:41;;;;;;;13.50;7.97;;;;;;;10.64;46.92;99226.16;5072401;28;41062;-77
2024/03/07 16:40:10;;;;;;;13.13;8.37;;;;;;;10.59;46.80;99225.56;5088944;28;40067;-77
2024/03/07 16:42:40;;;;;;;11.67;8.17;;;;;;;10.53;47.27;99226.75;5064044;28;41776;-76
2024/03/07 16:45:11;;;;;;;10.23;7.93;;;;;;;10.50;46.94;99226.09;5071592;28;43736;-77
2024/03/07 16:47:41;;;;;;;8.23;7.07;;;;;;;10.32;47.47;99198.84;5087404;28;42393;-77
2024/03/07 16:50:11;;;;;;;13.13;8.57;;;;;;;10.40;47.27;99220.44;5089487;28;40950;-76
2024/03/07 16:52:39;;;;;;;11.77;7.20;;;;;;;10.41;47.82;99228.31;5073773;28;41622;-78
2024/03/07 16:55:10;;;;;;;9.73;7.67;;;;;;;10.27;47.86;99209.69;5092265;28;43105;-77
2024/03/07 16:57:39;;;;;;;11.30;7.37;;;;;;;10.38;48.03;99225.84;5090092;28;42209;-76
2024/03/07 17:00:09;;;;;;;11.73;8.57;;;;;;;10.35;48.13;99228.66;5092646;28;39698;-77
2024/03/07 17:02:37;;;;;;;10.57;7.50;;;;;;;10.24;47.74;99209.88;5076388;28;41176;-77
2024/03/07 17:05:12;;;;;;;12.53;8.00;;;;;;;10.29;47.81;99226.34;5075945;28;41995;-78
2024/03/07 17:07:41;;;;;;;11.43;7.00;;;;;;;10.24;48.05;99219.59;5110070;28;42233;-76
2024/03/07 17:10:13;;;;;;;11.80;7.77;;;;;;;10.17;48.43;99224.34;5092940;28;38827;-77
2024/03/07 17:12:44;;;;;;;12.93;8.13;;;;;;;10.11;48.46;99219.41;5072792;28;41200;-76
2024/03/07 17:15:14;;;;;;;11.83;8.10;;;;;;;9.90;48.49;99196.72;5073427;28;41916;-76
2024/03/07 17:17:45;;;;;;;12.87;8.63;;;;;;;10.02;48.66;99225.16;5075626;28;42191;-78
2024/03/07 17:20:14;;;;;;;12.40;8.07;;;;;;;9.94;48.77;99211.50;5090621;28;40289;-77
2024/03/07 17:22:42;;;;;;;12.87;8.97;;;;;;;9.94;48.85;99217.66;5094408;28;42682;-77
2024/03/07 17:25:11;;;;;;;12.53;9.03;;;;;;;9.90;49.38;99220.53;5094026;28;43542;-77
2024/03/07 17:27:40;;;;;;;12.87;7.90;;;;;;;9.87;49.24;99218.94;5076885;28;41306;-80
2024/03/07 17:30:08;;;;;;;13.80;9.23;;;;;;;9.83;49.07;99213.88;5074406;28;40160;-76
2024/03/07 17:32:38;;;;;;;15.63;9.70;;;;;;;9.81;49.85;99207.81;5093090;28;40812;-76
2024/03/07 17:35:10;;;;;;;15.13;9.57;;;;;;;9.78;49.55;99215.91;5075591;28;41644;-77
2024/03/07 17:37:39;;;;;;;14.23;9.63;;;;;;;9.75;49.77;99210.81;5093755;28;41351;-76
2024/03/07 17:40:15;;;;;;;16.80;9.27;;;;;;;9.70;50.32;99209.25;5094681;28;40234;-77
2024/03/07 17:42:45;;;;;;;14.33;10.07;;;;;;;9.66;50.37;99207.69;5091732;28;43132;-78
2024/03/07 17:45:17;;;;;;;13.40;9.23;;;;;;;9.61;50.37;99209.75;5092898;28;45801;-79
2024/03/07 17:47:49;;;;;;;13.70;9.30;;;;;;;9.55;50.59;99204.75;5075375;28;42277;-80
2024/03/07 17:50:19;;;;;;;13.10;9.77;;;;;;;9.58;50.59;99207.25;5093221;28;40021;-77
2024/03/07 17:52:52;;;;;;;13.77;9.80;;;;;;;9.54;50.90;99208.34;5094635;28;42568;-80
2024/03/07 17:55:23;;;;;;;14.73;10.20;;;;;;;9.53;50.93;99206.63;5076395;28;42792;-77
2024/03/07 17:57:52;;;;;;;15.30;9.77;;;;;;;9.49;50.60;99214.81;5091815;28;42532;-77
2024/03/07 18:00:27;;;;;;;14.77;9.23;;;;;;;9.46;50.92;99207.03;5091853;28;40056;-78
2024/03/07 18:02:56;;;;;;;12.93;9.13;;;;;;;9.46;50.63;99215.84;5091807;28;42802;-78
2024/03/07 18:05:26;;;;;;;15.60;9.77;;;;;;;9.39;50.42;99214.44;5092663;28;42469;-76
2024/03/07 18:07:55;;;;;;;14.47;9.97;;;;;;;9.38;50.90;99212.75;5076257;28;43476;-81
2024/03/07 18:10:23;;;;;;;12.57;8.43;;;;;;;9.36;51.06;99222.53;5092645;28;41002;-79
2024/03/07 18:12:52;;;;;;;14.97;8.80;;;;;;;9.29;50.78;99208.75;5092776;28;41885;-78
2024/03/07 18:15:22;;;;;;;12.67;8.57;;;;;;;9.24;50.86;99205.53;5090463;28;43890;-77
2024/03/07 18:17:48;;;;;;;13.03;8.63;;;;;;;9.31;50.84;99227.19;5092858;28;42196;-80
2024/03/07 18:20:17;;;;;;;14.60;8.90;;;;;;;9.31;50.74;99222.75;5092613;28;38915;-79
2024/03/07 18:22:46;;;;;;;14.73;8.77;;;;;;;9.29;50.92;99218.47;5093124;28;41537;-76
2024/03/07 18:25:22;;;;;;;12.20;8.93;;;;;;;9.25;51.05;99214.31;5090491;28;42017;-80
2024/03/07 18:27:50;;;;;;;14.00;9.30;;;;;;;9.24;50.95;99212.59;5088032;28;42148;-76
2024/03/07 18:30:19;;;;;;;13.33;9.03;;;;;;;9.20;51.45;99221.59;5074386;28;39189;-78
2024/03/07 18:32:47;;;;;;;13.63;8.60;;;;;;;9.19;51.54;99211.97;5090803;28;41850;-80
2024/03/07 18:35:15;;;;;;;14.23;9.83;;;;;;;9.13;51.50;99217.56;5075490;28;42010;-79
2024/03/07 18:37:43;;;;;;;13.93;10.17;;;;;;;9.01;51.67;99211.13;5093779;28;42693;-77
2024/03/07 18:40:14;;;;;;;14.10;10.13;;;;;;;9.02;51.68;99214.63;5091242;28;40152;-80
2024/03/07 18:42:44;;;;;;;12.93;10.60;;;;;;;8.89;51.72;99215.25;5074222;28;41070;-80
2024/03/07 18:45:17;;;;;;;15.47;10.43;;;;;;;8.91;51.64;99207.22;5093307;28;43568;-78
2024/03/07 18:47:46;;;;;;;15.83;11.20;;;;;;;8.78;51.90;99193.75;5089599;28;43234;-78
2024/03/07 18:50:16;;;;;;;13.80;10.43;;;;;;;8.85;51.80;99204.91;5092150;28;40078;-76
2024/03/07 18:52:44;;;;;;;16.27;10.77;;;;;;;8.80;52.23;99196.34;5074404;28;40487;-77
2024/03/07 18:55:18;;;;;;;17.03;10.80;;;;;;;8.73;52.57;99198.44;5090228;28;41411;-79
2024/03/07 18:57:48;;;;;;;14.80;11.57;;;;;;;8.70;52.51;99203.88;5073900;28;43918;-77
2024/03/07 19:00:30;;;;;;;13.97;9.67;;;;;;;8.68;52.45;99199.59;5092184;28;40849;-77
2024/03/07 19:03:00;;;;;;;15.83;10.87;;;;;;;8.65;52.84;99200.63;5089330;28;42202;-76
2024/03/07 19:05:28;;;;;;;15.47;11.00;;;;;;;8.57;52.88;99202.75;5093052;28;43591;-80
2024/03/07 19:07:56;;;;;;;13.83;10.23;;;;;;;8.55;52.76;99200.19;5073169;28;41182;-78
2024/03/07 19:10:28;;;;;;;14.50;10.77;;;;;;;8.53;52.74;99202.03;5074660;28;39513;-78
2024/03/07 19:12:58;;;;;;;13.33;10.13;;;;;;;8.50;53.15;99191.66;5075380;28;40578;-79
2024/03/07 19:15:26;;;;;;;14.30;10.50;;;;;;;8.52;53.03;99199.50;5074045;28;41826;-80
2024/03/07 19:17:54;;;;;;;15.87;10.97;;;;;;;8.42;53.57;99187.66;5093106;28;43051;-76
2024/03/07 19:20:22;;;;;;;14.20;10.40;;;;;;;8.46;53.42;99195.34;5093002;28;39976;-75
2024/03/07 19:22:52;;;;;;;15.00;10.33;;;;;;;8.48;53.22;99192.66;5091658;28;41793;-77
2024/03/07 19:25:20;;;;;;;15.57;11.33;;;;;;;8.44;53.82;99191.06;5072392;28;42814;-76
2024/03/07 19:27:49;;;;;;;15.30;9.77;;;;;;;8.42;53.47;99192.94;5091831;28;41148;-76
2024/03/07 19:30:19;;;;;;;15.67;11.43;;;;;;;8.41;53.31;99196.50;5090812;28;39354;-80
2024/03/07 19:32:47;;;;;;;14.00;10.63;;;;;;;8.40;53.64;99194.81;5075326;28;41098;-77
2024/03/07 19:35:17;;;;;;;15.10;10.67;;;;;;;8.37;53.64;99193.19;5074424;28;45455;-78
2024/03/07 19:37:48;;;;;;;15.30;10.53;;;;;;;8.37;53.69;99200.22;5092027;28;42219;-79
2024/03/07 19:40:19;;;;;;;17.80;12.10;;;;;;;8.33;53.91;99193.38;5090223;28;40710;-80
2024/03/07 19:42:49;;;;;;;15.43;10.97;;;;;;;8.36;53.73;99198.53;5091142;28;41049;-78
2024/03/07 19:45:18;;;;;;;15.37;11.27;;;;;;;8.32;54.00;99203.09;5091417;28;43579;-78
2024/03/07 19:47:46;;;;;;;18.80;11.37;;;;;;;8.28;54.05;99190.94;5092743;28;43245;-79
2024/03/07 19:50:16;;;;;;;15.40;10.93;;;;;;;8.24;54.36;99199.94;5074421;28;39008;-79
2024/03/07 19:52:46;;;;;;;14.13;11.53;;;;;;;8.19;54.77;99197.50;5074572;28;40351;-79
2024/03/07 19:55:13;;;;;;;16.97;11.43;;;;;;;8.20;54.64;99193.06;5092061;28;42911;-77
2024/03/07 19:57:42;;;;;;;16.67;11.57;;;;;;;8.07;54.62;99170.84;5074365;28;41037;-80
2024/03/07 20:00:15;;;;;;;16.83;11.57;;;;;;;8.14;54.92;99180.19;5072608;28;38952;-78
2024/03/07 20:02:44;;;;;;;18.13;11.77;;;;;;;8.10;55.01;99186.53;5085715;28;43322;-78
2024/03/07 20:05:16;;;;;;;14.40;10.80;;;;;;;8.07;55.19;99184.03;5091171;28;42722;-80
2024/03/07 20:07:44;;;;;;;15.90;11.70;;;;;;;8.05;55.16;99185.88;5091206;28;41125;-79
2024/03/07 20:10:11;;;;;;;15.30;12.03;;;;;;;7.99;55.56;99189.69;5092287;28;39714;-76
2024/03/07 20:12:41;;;;;;;17.27;11.93;;;;;;;7.98;55.69;99177.41;5090996;28;41858;-80
2024/03/07 20:15:11;;;;;;;17.67;11.67;;;;;;;7.93;55.51;99179.41;5072290;28;41842;-79